Mill Iron, Montana
Current Conditions -  °F | °C
As of 4:51 PM on Sunday 21 Dec 2014 (Local Time) from KBHK Reporting Station
Light Rain Light Rain  
Wind Chill: 30°   Ceiling: 2700
Heat Index: 38°   Visibility: 10mi
Dew Point: 37°   Wind: 14mph
Humidity: 97%   Direction: 260°W
Pressure: 29.38"   Gusts: NA
Location:  45.8804°N, 104.499°W
Report Text: KBHK 212351Z AUTO 26012KT 10SM -RA BKN027 OVC032 03/03 A2938 RMK AO2 RAB30 SLP971 P0000 60006 T00330028 10039 20017 53009
Loading
Personal Weather Stations






























Interactive Weather Map New forecast layout! Learn more

10-Day Weather Forecast

Advertisements
Track Severe Weather on mobile